createdAt,value
2022-10-14T00:01:23.823Z,76.88
2022-10-14T00:04:04.223Z,76.90
2022-10-14T00:06:34.523Z,76.95
2022-10-14T00:09:07.542Z,76.91
2022-10-14T00:11:37.515Z,76.97
2022-10-14T00:14:12.585Z,76.92
2022-10-14T00:16:43.216Z,76.89
2022-10-14T00:19:12.294Z,76.70
2022-10-14T00:21:43.802Z,76.97
2022-10-14T00:24:16.509Z,76.88
2022-10-14T00:26:45.076Z,77.02
2022-10-14T00:29:19.734Z,76.80
2022-10-14T00:31:48.547Z,76.75
2022-10-14T00:34:17.116Z,76.90
2022-10-14T00:36:45.193Z,76.89
2022-10-14T00:39:17.049Z,76.93
2022-10-14T00:41:45.662Z,76.82
2022-10-14T00:44:13.686Z,76.90
2022-10-14T00:46:44.519Z,77.05
2022-10-14T00:49:25.494Z,77.13
2022-10-14T00:52:14.025Z,77.16
2022-10-14T00:54:47.521Z,77.33
2022-10-14T00:57:16.144Z,77.27
2022-10-14T00:59:50.848Z,77.31
2022-10-14T01:02:19.368Z,77.31
2022-10-14T01:04:47.316Z,77.26
2022-10-14T01:07:18.475Z,77.55
2022-10-14T01:10:05.094Z,77.52
2022-10-14T01:12:52.066Z,77.58
2022-10-14T01:15:35.817Z,77.86
2022-10-14T01:18:33.847Z,77.80
2022-10-14T01:21:26.545Z,77.89
2022-10-14T01:24:32.494Z,77.87
2022-10-14T01:27:19.112Z,77.97
2022-10-14T01:29:58.974Z,77.96
2022-10-14T01:32:49.915Z,77.98
2022-10-14T01:35:49.998Z,78.02
2022-10-14T01:38:26.079Z,78.14
2022-10-14T01:41:11.927Z,78.24
2022-10-14T01:43:43.565Z,78.07
2022-10-14T01:46:13.617Z,78.21
2022-10-14T01:48:46.940Z,78.26
2022-10-14T01:51:27.397Z,78.03
2022-10-14T01:54:08.718Z,78.24
2022-10-14T01:56:40.555Z,78.12
2022-10-14T01:59:12.561Z,78.19
2022-10-14T02:01:40.684Z,78.11
2022-10-14T02:04:19.909Z,78.33
2022-10-14T02:07:19.815Z,78.29
2022-10-14T02:10:01.430Z,78.31
2022-10-14T02:12:51.652Z,78.05
2022-10-14T02:15:31.693Z,78.24
2022-10-14T02:18:08.588Z,78.21
2022-10-14T02:20:39.658Z,78.14
2022-10-14T02:23:16.862Z,78.28
2022-10-14T02:25:47.219Z,78.21
2022-10-14T02:28:22.129Z,78.36
2022-10-14T02:30:53.934Z,78.35
2022-10-14T02:33:24.707Z,78.31
2022-10-14T02:35:54.373Z,78.31
2022-10-14T02:38:24.088Z,78.10
2022-10-14T02:40:54.441Z,78.00
2022-10-14T02:43:22.225Z,78.25
2022-10-14T02:45:50.164Z,78.26
2022-10-14T02:48:18.266Z,78.23
2022-10-14T02:50:46.097Z,78.12
2022-10-14T02:53:17.439Z,78.08
2022-10-14T02:55:46.798Z,78.14
2022-10-14T02:58:14.898Z,77.97
2022-10-14T03:00:43.143Z,77.98
2022-10-14T03:03:13.093Z,77.92
2022-10-14T03:05:41.131Z,77.68
2022-10-14T03:08:12.821Z,77.79
2022-10-14T03:10:40.967Z,77.71
2022-10-14T03:13:10.731Z,77.72
2022-10-14T03:15:42.776Z,77.62
2022-10-14T03:18:11.624Z,77.56
2022-10-14T03:20:45.864Z,77.62
2022-10-14T03:23:17.825Z,77.52
2022-10-14T03:25:47.370Z,77.41
2022-10-14T03:28:20.858Z,77.42
2022-10-14T03:31:09.879Z,77.37
2022-10-14T03:33:58.390Z,77.28
2022-10-14T03:36:27.974Z,77.10
2022-10-14T03:38:57.714Z,77.18
2022-10-14T03:41:42.201Z,77.01
2022-10-14T03:44:11.667Z,77.02
2022-10-14T03:46:40.891Z,76.97
2022-10-14T03:49:09.274Z,76.97
2022-10-14T03:51:38.288Z,76.82
2022-10-14T03:54:16.111Z,76.88
2022-10-14T03:56:45.739Z,76.92
2022-10-14T03:59:14.887Z,76.83
2022-10-14T04:01:46.585Z,76.99
2022-10-14T04:04:21.458Z,77.03
2022-10-14T04:06:49.735Z,76.93
2022-10-14T04:09:19.290Z,77.10
2022-10-14T04:11:47.991Z,77.11
2022-10-14T04:14:29.570Z,77.16
2022-10-14T04:16:58.102Z,77.33
2022-10-14T04:19:26.605Z,77.35
2022-10-14T04:21:55.830Z,77.50
2022-10-14T04:24:24.303Z,77.44
2022-10-14T04:26:57.430Z,77.43
2022-10-14T04:29:42.437Z,77.51
2022-10-14T04:32:15.863Z,77.64
2022-10-14T04:34:44.037Z,77.52
2022-10-14T04:37:13.698Z,77.63
2022-10-14T04:39:47.764Z,77.68
2022-10-14T04:42:15.978Z,77.71
2022-10-14T04:44:45.056Z,77.78
2022-10-14T04:47:13.769Z,77.69
2022-10-14T04:49:41.708Z,77.76
2022-10-14T04:52:15.024Z,77.80
2022-10-14T04:54:55.631Z,77.79
2022-10-14T04:57:34.012Z,77.79
2022-10-14T05:00:04.903Z,77.84
2022-10-14T05:02:44.748Z,77.88
2022-10-14T05:05:12.723Z,77.79
2022-10-14T05:07:41.828Z,77.88
2022-10-14T05:10:23.484Z,77.74
2022-10-14T05:12:51.561Z,77.68
2022-10-14T05:15:19.734Z,77.73
2022-10-14T05:17:57.376Z,77.66
2022-10-14T05:20:32.506Z,77.71
2022-10-14T05:23:00.653Z,77.71
2022-10-14T05:25:28.907Z,77.60
2022-10-14T05:27:57.196Z,77.79
2022-10-14T05:30:30.830Z,77.74
2022-10-14T05:33:01.885Z,77.78
2022-10-14T05:35:57.080Z,77.69
2022-10-14T05:38:19.840Z,77.66
2022-10-14T05:40:55.632Z,77.67
2022-10-14T05:43:32.009Z,77.50
2022-10-14T05:46:01.617Z,77.62
2022-10-14T05:48:32.405Z,77.74
2022-10-14T05:51:02.911Z,77.68
2022-10-14T05:53:33.156Z,77.63
2022-10-14T05:56:06.031Z,77.68
2022-10-14T05:58:34.521Z,77.81
2022-10-14T06:01:04.617Z,77.76
2022-10-14T06:03:33.668Z,77.73
2022-10-14T06:06:02.406Z,77.88
2022-10-14T06:08:31.804Z,77.62
2022-10-14T06:11:04.990Z,77.64
2022-10-14T06:13:35.507Z,77.68
2022-10-14T06:16:09.127Z,77.57
2022-10-14T06:18:38.441Z,77.55
2022-10-14T06:21:08.309Z,77.64
2022-10-14T06:23:37.188Z,77.50
2022-10-14T06:26:11.997Z,77.58
2022-10-14T06:28:40.168Z,77.52
2022-10-14T06:31:08.049Z,77.44
2022-10-14T06:33:36.270Z,77.38
2022-10-14T06:36:06.118Z,77.35
2022-10-14T06:38:34.104Z,77.46
2022-10-14T06:41:02.962Z,77.29
2022-10-14T06:43:31.109Z,77.40
2022-10-14T06:45:59.590Z,77.24
2022-10-14T06:48:27.674Z,77.07
2022-10-14T06:51:00.232Z,76.95
2022-10-14T06:53:29.772Z,77.10
2022-10-14T06:56:00.214Z,76.89
2022-10-14T06:58:29.092Z,76.70
2022-10-14T07:01:02.682Z,76.58
2022-10-14T07:03:31.785Z,76.39
2022-10-14T07:06:04.048Z,76.73
2022-10-14T07:08:32.450Z,76.42
2022-10-14T07:11:00.629Z,76.28
2022-10-14T07:13:29.182Z,76.34
2022-10-14T07:15:57.667Z,76.07
2022-10-14T07:18:25.937Z,76.13
2022-10-14T07:20:53.857Z,75.89
2022-10-14T07:23:22.186Z,75.97
2022-10-14T07:25:50.232Z,75.81
2022-10-14T07:28:18.977Z,75.64
2022-10-14T07:30:56.303Z,75.49
2022-10-14T07:33:24.517Z,75.33
2022-10-14T07:35:52.602Z,75.39
2022-10-14T07:38:21.032Z,75.24
2022-10-14T07:40:59.665Z,75.15
2022-10-14T07:43:28.525Z,75.25
2022-10-14T07:46:01.136Z,75.08
2022-10-14T07:48:32.711Z,75.22
2022-10-14T07:51:00.981Z,75.05
2022-10-14T07:53:29.203Z,75.13
2022-10-14T07:55:58.853Z,74.85
2022-10-14T07:58:29.566Z,74.93
2022-10-14T08:00:58.333Z,74.72
2022-10-14T08:03:26.911Z,74.74
2022-10-14T08:06:00.462Z,74.39
2022-10-14T08:08:29.775Z,74.64
2022-10-14T08:11:05.815Z,74.42
2022-10-14T08:13:34.446Z,74.30
2022-10-14T08:16:03.085Z,74.11
2022-10-14T08:18:30.977Z,74.24
2022-10-14T08:20:58.964Z,74.26
2022-10-14T08:23:27.458Z,74.42
2022-10-14T08:25:55.273Z,74.45
2022-10-14T08:28:23.269Z,74.11
2022-10-14T08:30:53.028Z,74.19
2022-10-14T08:33:21.623Z,74.10
2022-10-14T08:35:53.837Z,74.00
2022-10-14T08:38:25.314Z,73.77
2022-10-14T08:41:30.898Z,73.66
2022-10-14T08:44:13.455Z,73.46
2022-10-14T08:46:51.233Z,73.45
2022-10-14T08:49:27.182Z,73.36
2022-10-14T08:52:10.200Z,73.44
2022-10-14T08:54:55.662Z,73.30
2022-10-14T08:57:27.466Z,73.38
2022-10-14T08:59:55.729Z,72.99
2022-10-14T09:02:29.960Z,72.65
2022-10-14T09:05:00.180Z,72.35
2022-10-14T09:07:32.161Z,72.16
2022-10-14T09:10:07.502Z,72.22
2022-10-14T09:12:36.624Z,72.31
2022-10-14T09:15:22.577Z,72.43
2022-10-14T09:17:57.570Z,72.50
2022-10-14T09:20:28.553Z,72.47
2022-10-14T09:23:19.605Z,72.29
2022-10-14T09:26:11.835Z,72.44
2022-10-14T09:28:43.911Z,72.40
2022-10-14T09:31:15.885Z,72.22
2022-10-14T09:33:57.411Z,72.06
2022-10-14T09:36:27.307Z,72.10
2022-10-14T09:38:55.610Z,72.15
2022-10-14T09:41:30.813Z,72.00
2022-10-14T09:44:21.294Z,71.68
2022-10-14T09:47:13.381Z,71.47
2022-10-14T09:49:46.651Z,71.34
2022-10-14T09:52:24.446Z,71.43
2022-10-14T09:54:59.023Z,71.13
2022-10-14T09:57:28.464Z,71.09
2022-10-14T10:00:03.650Z,70.91
2022-10-14T10:02:43.710Z,70.96
2022-10-14T10:05:22.675Z,70.85
2022-10-14T10:08:18.322Z,71.09
2022-10-14T10:11:13.793Z,70.77
2022-10-14T10:13:47.498Z,70.54
2022-10-14T10:16:25.260Z,70.41
2022-10-14T10:18:56.297Z,70.68
2022-10-14T10:21:28.064Z,70.49
2022-10-14T10:24:01.700Z,70.33
2022-10-14T10:26:38.557Z,70.19
2022-10-14T10:29:06.745Z,70.14
2022-10-14T10:31:43.742Z,69.76
2022-10-14T10:34:51.534Z,69.56
2022-10-14T10:37:23.964Z,69.67
2022-10-14T10:40:47.685Z,69.38
2022-10-14T10:43:45.262Z,69.39
2022-10-14T10:46:36.516Z,68.98
2022-10-14T10:49:53.027Z,69.09
2022-10-14T10:52:37.157Z,69.13
2022-10-14T10:55:43.076Z,69.39
2022-10-14T10:58:30.241Z,69.17
2022-10-14T11:01:06.081Z,69.04
2022-10-14T11:03:55.337Z,69.08
2022-10-14T11:06:56.265Z,69.04
2022-10-14T11:09:54.561Z,68.63
2022-10-14T11:12:28.734Z,68.92
2022-10-14T11:15:29.056Z,68.61
2022-10-14T11:18:12.657Z,68.43
2022-10-14T11:21:05.598Z,68.48
2022-10-14T11:23:59.756Z,68.51
2022-10-14T11:26:58.871Z,68.69
2022-10-14T11:29:36.499Z,68.33
2022-10-14T11:32:14.250Z,67.91
2022-10-14T11:35:08.026Z,67.59
2022-10-14T11:37:43.400Z,67.14
2022-10-14T11:40:29.002Z,66.89
2022-10-14T11:43:21.060Z,67.19
2022-10-14T11:45:56.942Z,66.54
2022-10-14T11:49:09.640Z,66.67
2022-10-14T11:51:42.970Z,66.68
2022-10-14T11:54:35.812Z,66.47
2022-10-14T11:57:10.017Z,66.58
2022-10-14T12:00:04.773Z,66.47
2022-10-14T12:03:05.030Z,66.76
2022-10-14T12:05:59.604Z,66.92
2022-10-14T12:08:37.742Z,67.03
2022-10-14T12:11:24.990Z,66.45
2022-10-14T12:14:22.647Z,66.73
2022-10-14T12:16:54.594Z,66.48
2022-10-14T12:19:27.348Z,66.27
2022-10-14T12:22:13.293Z,65.93
2022-10-14T12:24:57.223Z,66.08
2022-10-14T12:27:28.703Z,66.01
2022-10-14T12:33:23.035Z,65.93
2022-10-14T12:36:00.174Z,65.92
2022-10-14T12:38:31.306Z,65.87
2022-10-14T12:41:38.486Z,65.55
2022-10-14T12:44:14.864Z,65.91
2022-10-14T12:46:49.726Z,65.89
2022-10-14T12:49:30.868Z,65.89
2022-10-14T12:52:05.047Z,66.05
2022-10-14T12:54:35.898Z,66.13
2022-10-14T12:57:15.439Z,65.98
2022-10-14T12:59:50.560Z,65.85
2022-10-14T13:02:32.556Z,65.88
2022-10-14T13:05:35.158Z,65.81
2022-10-14T13:08:19.464Z,65.71
2022-10-14T13:10:50.059Z,65.85
2022-10-14T13:13:58.073Z,65.71
2022-10-14T13:16:26.228Z,65.85
2022-10-14T13:19:01.912Z,66.04
2022-10-14T13:21:38.827Z,66.14
2022-10-14T13:24:06.878Z,66.24
2022-10-14T13:26:44.408Z,66.12
2022-10-14T13:29:47.696Z,66.12
2022-10-14T13:32:39.318Z,66.35
2022-10-14T13:35:38.203Z,66.48
2022-10-14T13:38:13.139Z,66.48
2022-10-14T13:40:48.341Z,66.48
2022-10-14T13:43:41.619Z,66.49
2022-10-14T13:46:12.781Z,66.37
2022-10-14T13:48:45.349Z,66.45
2022-10-14T13:51:24.453Z,66.70
2022-10-14T13:54:17.098Z,66.33
2022-10-14T13:57:19.820Z,66.50
2022-10-14T14:00:22.612Z,66.58
2022-10-14T14:02:42.861Z,66.75
2022-10-14T14:05:16.707Z,66.69
2022-10-14T14:10:39.094Z,66.73
2022-10-14T14:13:16.117Z,66.62
2022-10-14T14:15:50.740Z,66.30
2022-10-14T14:19:03.794Z,66.35
2022-10-14T14:21:36.434Z,66.47
2022-10-14T14:24:19.223Z,66.35
2022-10-14T14:26:55.901Z,66.39
2022-10-14T14:29:33.498Z,66.49
2022-10-14T14:32:07.043Z,66.70
2022-10-14T14:34:37.891Z,66.73
2022-10-14T14:40:06.151Z,66.80
2022-10-14T14:42:39.662Z,66.81
2022-10-14T14:45:19.758Z,66.95
2022-10-14T14:47:51.618Z,67.06
2022-10-14T14:50:31.619Z,67.20
2022-10-14T14:53:12.092Z,67.30
2022-10-14T14:55:42.329Z,67.28
2022-10-14T14:58:54.232Z,67.48
2022-10-14T15:01:23.306Z,67.61
2022-10-14T15:04:12.230Z,67.52
2022-10-14T15:06:59.517Z,67.98
2022-10-14T15:09:36.655Z,68.31
2022-10-14T15:12:12.975Z,68.46
2022-10-14T15:14:58.260Z,68.22
2022-10-14T15:17:35.106Z,68.30
2022-10-14T15:20:06.147Z,68.54
2022-10-14T15:22:37.522Z,68.56
2022-10-14T15:25:07.411Z,68.58
2022-10-14T15:27:36.105Z,68.70
2022-10-14T15:30:23.740Z,68.57
2022-10-14T15:32:52.970Z,68.63
2022-10-14T15:35:22.714Z,68.79
2022-10-14T15:37:51.738Z,68.73
2022-10-14T15:40:38.170Z,68.97
2022-10-14T15:43:13.919Z,69.17
2022-10-14T15:46:09.128Z,69.27
2022-10-14T15:48:46.356Z,69.45
2022-10-14T15:51:16.764Z,69.50
2022-10-14T15:53:44.944Z,69.44
2022-10-14T15:56:13.152Z,69.50
2022-10-14T15:58:41.176Z,69.67
2022-10-14T16:01:19.501Z,69.70
2022-10-14T16:03:55.213Z,69.76
2022-10-14T16:06:24.833Z,69.82
2022-10-14T16:08:53.198Z,69.93
2022-10-14T16:11:31.342Z,69.95
2022-10-14T16:13:59.491Z,70.05
2022-10-14T16:16:34.413Z,70.06
2022-10-14T16:19:02.549Z,70.24
2022-10-14T16:21:31.237Z,70.23
2022-10-14T16:23:59.778Z,70.34
2022-10-14T16:26:27.986Z,70.22
2022-10-14T16:28:56.008Z,70.33
2022-10-14T16:31:24.168Z,70.55
2022-10-14T16:33:55.126Z,70.62
2022-10-14T16:36:25.029Z,70.67
2022-10-14T16:38:54.984Z,70.74
2022-10-14T16:41:22.959Z,70.93
2022-10-14T16:43:50.752Z,71.07
2022-10-14T16:46:18.702Z,71.11
2022-10-14T16:48:49.785Z,71.08
2022-10-14T16:51:17.731Z,71.18
2022-10-14T16:53:47.080Z,71.33
2022-10-14T16:56:40.927Z,71.34
2022-10-14T16:59:12.809Z,71.49
2022-10-14T17:01:41.130Z,71.49
2022-10-14T17:04:14.054Z,71.77
2022-10-14T17:06:44.280Z,71.76
2022-10-14T17:09:17.627Z,71.88
2022-10-14T17:11:46.511Z,72.06
2022-10-14T17:14:16.995Z,72.17
2022-10-14T17:16:47.340Z,72.01
2022-10-14T17:19:16.230Z,72.21
2022-10-14T17:21:44.580Z,72.16
2022-10-14T17:24:17.143Z,72.33
2022-10-14T17:26:46.897Z,72.39
2022-10-14T17:29:15.191Z,72.35
2022-10-14T17:31:46.956Z,72.47
2022-10-14T17:34:15.666Z,72.52
2022-10-14T17:36:44.022Z,72.54
2022-10-14T17:39:16.471Z,72.67
2022-10-14T17:41:49.458Z,72.69
2022-10-14T17:44:17.426Z,72.70
2022-10-14T17:46:45.816Z,72.83
2022-10-14T17:49:14.446Z,72.74
2022-10-14T17:51:42.802Z,72.83
2022-10-14T17:54:12.263Z,72.86
2022-10-14T17:56:41.090Z,72.91
2022-10-14T17:59:14.262Z,73.07
2022-10-14T18:02:01.561Z,73.18
2022-10-14T18:04:32.683Z,73.17
2022-10-14T18:07:03.500Z,73.31
2022-10-14T18:09:31.331Z,73.37
2022-10-14T18:12:08.646Z,73.49
2022-10-14T18:14:40.683Z,73.48
2022-10-14T18:17:11.104Z,73.62
2022-10-14T18:19:40.960Z,73.76
2022-10-14T18:22:11.115Z,73.83
2022-10-14T18:24:39.543Z,73.88
2022-10-14T18:27:07.774Z,73.96
2022-10-14T18:29:37.091Z,73.98
2022-10-14T18:32:05.803Z,74.12
2022-10-14T18:34:34.183Z,74.17
2022-10-14T18:37:02.300Z,74.28
2022-10-14T18:39:30.646Z,74.29
2022-10-14T18:41:58.560Z,74.34
2022-10-14T18:44:26.782Z,74.45
2022-10-14T18:46:55.064Z,74.63
2022-10-14T18:49:22.845Z,74.65
2022-10-14T18:51:50.844Z,74.85
2022-10-14T18:54:21.574Z,74.89
2022-10-14T18:56:49.434Z,75.13
2022-10-14T18:59:20.443Z,75.03
2022-10-14T19:01:52.147Z,75.26
2022-10-14T19:04:23.034Z,75.30
2022-10-14T19:06:51.155Z,75.35
2022-10-14T19:09:22.393Z,75.46
2022-10-14T19:11:51.843Z,75.61
2022-10-14T19:14:20.881Z,75.73
2022-10-14T19:16:49.793Z,75.65
2022-10-14T19:19:20.203Z,75.77
2022-10-14T19:21:50.993Z,75.99
2022-10-14T19:24:22.564Z,76.00
2022-10-14T19:26:50.832Z,76.07
2022-10-14T19:29:18.560Z,75.98
2022-10-14T19:31:46.608Z,76.06
2022-10-14T19:34:16.013Z,76.19
2022-10-14T19:36:44.633Z,76.13
2022-10-14T19:39:16.060Z,76.32
2022-10-14T19:41:46.351Z,76.26
2022-10-14T19:44:16.264Z,76.27
2022-10-14T19:46:45.626Z,76.32
2022-10-14T19:49:14.966Z,76.16
2022-10-14T19:51:44.093Z,76.19
2022-10-14T19:54:12.784Z,76.25
2022-10-14T19:56:41.084Z,76.18
2022-10-14T19:59:10.124Z,76.45
2022-10-14T20:01:38.281Z,76.50
2022-10-14T20:04:07.109Z,76.59
2022-10-14T20:06:38.104Z,76.66
2022-10-14T20:09:07.324Z,76.66
2022-10-14T20:11:36.196Z,76.80
2022-10-14T20:14:04.247Z,76.86
2022-10-14T20:16:32.586Z,77.04
2022-10-14T20:19:01.031Z,76.87
2022-10-14T20:21:30.808Z,76.96
2022-10-14T20:23:59.613Z,77.01
2022-10-14T20:26:28.044Z,77.06
2022-10-14T20:28:56.465Z,77.36
2022-10-14T20:31:25.609Z,77.52
2022-10-14T20:33:56.069Z,77.52
2022-10-14T20:36:24.882Z,77.51
2022-10-14T20:38:52.954Z,77.62
2022-10-14T20:41:27.444Z,77.68
2022-10-14T20:43:58.703Z,77.78
2022-10-14T20:46:26.899Z,78.01
2022-10-14T20:48:56.698Z,78.09
2022-10-14T20:51:25.086Z,78.27
2022-10-14T20:54:01.909Z,78.55
2022-10-14T20:56:33.600Z,78.38
2022-10-14T20:59:05.042Z,78.55
2022-10-14T21:01:35.223Z,78.56
2022-10-14T21:04:05.914Z,78.78
2022-10-14T21:06:34.904Z,78.74
2022-10-14T21:09:03.160Z,78.85
2022-10-14T21:11:32.066Z,79.05
2022-10-14T21:14:01.076Z,79.03
2022-10-14T21:16:29.670Z,79.07
2022-10-14T21:19:00.934Z,79.09
2022-10-14T21:21:33.016Z,79.20
2022-10-14T21:24:01.005Z,79.19
2022-10-14T21:26:30.406Z,79.43
2022-10-14T21:29:02.390Z,79.34
2022-10-14T21:31:31.702Z,79.53
2022-10-14T21:34:05.697Z,79.55
2022-10-14T21:36:35.748Z,79.44
2022-10-14T21:39:13.006Z,79.60
2022-10-14T21:41:42.121Z,79.65
2022-10-14T21:44:15.697Z,79.58
2022-10-14T21:46:43.976Z,79.62
2022-10-14T21:49:13.157Z,79.61
2022-10-14T21:51:41.289Z,79.72
2022-10-14T21:54:12.508Z,79.65
2022-10-14T21:56:40.855Z,79.61
2022-10-14T21:59:10.165Z,79.68
2022-10-14T22:01:38.511Z,79.65
2022-10-14T22:04:06.882Z,79.76
2022-10-14T22:06:36.346Z,79.78
2022-10-14T22:09:07.692Z,79.77
2022-10-14T22:11:41.413Z,79.91
2022-10-14T22:14:17.460Z,79.85
2022-10-14T22:16:46.982Z,79.91
2022-10-14T22:19:15.583Z,79.74
2022-10-14T22:21:46.362Z,79.60
2022-10-14T22:24:14.658Z,79.54
2022-10-14T22:26:42.936Z,79.57
2022-10-14T22:29:14.583Z,79.57
2022-10-14T22:31:42.451Z,79.80
2022-10-14T22:34:12.567Z,79.71
2022-10-14T22:36:41.306Z,80.01
2022-10-14T22:39:14.867Z,79.98
2022-10-14T22:41:43.333Z,80.08
2022-10-14T22:44:11.888Z,80.11
2022-10-14T22:46:40.939Z,80.10
2022-10-14T22:49:09.133Z,80.08
2022-10-14T22:51:43.367Z,80.22
2022-10-14T22:54:11.567Z,80.11
2022-10-14T22:56:39.891Z,80.21
2022-10-14T22:59:10.311Z,79.89
2022-10-14T23:01:40.107Z,79.59
2022-10-14T23:04:08.808Z,79.54
2022-10-14T23:06:37.287Z,79.45
2022-10-14T23:09:05.650Z,79.29
2022-10-14T23:11:33.451Z,79.34
2022-10-14T23:14:04.586Z,79.43
2022-10-14T23:16:36.175Z,79.17
2022-10-14T23:19:04.483Z,79.15
2022-10-14T23:21:34.915Z,79.40
2022-10-14T23:24:09.060Z,79.40
2022-10-14T23:26:37.803Z,79.38
2022-10-14T23:29:10.008Z,79.25
2022-10-14T23:31:39.481Z,79.13
2022-10-14T23:34:11.724Z,79.32
2022-10-14T23:36:39.636Z,79.15
2022-10-14T23:39:07.913Z,79.12
2022-10-14T23:41:35.915Z,78.73
2022-10-14T23:44:03.915Z,78.46
2022-10-14T23:46:32.088Z,78.33
2022-10-14T23:49:24.934Z,78.22
2022-10-14T23:51:51.212Z,78.13
2022-10-14T23:54:19.590Z,77.89
2022-10-14T23:56:47.649Z,78.22
2022-10-14T23:59:15.442Z,78.09
